createdAt,value
2017-12-20T00:02:24.529Z,2.60
2017-12-20T00:04:51.965Z,2.60
2017-12-20T00:07:22.225Z,2.60
2017-12-20T00:09:50.401Z,2.70
2017-12-20T00:12:17.829Z,2.70
2017-12-20T00:14:45.649Z,2.60
2017-12-20T00:17:13.733Z,2.70
2017-12-20T00:19:41.178Z,2.70
2017-12-20T00:22:09.394Z,2.70
2017-12-20T00:24:37.646Z,2.70
2017-12-20T00:27:05.075Z,2.70
2017-12-20T00:29:32.501Z,2.70
2017-12-20T00:32:00.123Z,2.70
2017-12-20T00:34:27.556Z,2.70
2017-12-20T00:36:55.750Z,2.70
2017-12-20T00:39:23.188Z,2.70
2017-12-20T00:41:51.377Z,2.70
2017-12-20T00:44:19.640Z,2.70
2017-12-20T00:46:49.412Z,2.70
2017-12-20T00:49:16.843Z,2.70
2017-12-20T00:51:44.303Z,2.70
2017-12-20T00:54:12.440Z,2.80
2017-12-20T00:56:40.633Z,2.80
2017-12-20T00:59:08.077Z,2.80
2017-12-20T01:01:36.283Z,2.80
2017-12-20T01:04:03.939Z,2.70
2017-12-20T01:06:32.028Z,2.80
2017-12-20T01:08:59.468Z,2.80
2017-12-20T01:11:26.897Z,2.80
2017-12-20T01:13:54.336Z,2.70
2017-12-20T01:16:22.661Z,2.80
2017-12-20T01:18:50.081Z,2.80
2017-12-20T01:21:20.724Z,2.80
2017-12-20T01:23:48.183Z,2.80
2017-12-20T01:26:16.391Z,2.80
2017-12-20T01:28:43.824Z,2.80
2017-12-20T01:31:11.267Z,2.80
2017-12-20T01:33:39.465Z,2.80
2017-12-20T01:36:06.925Z,2.80
2017-12-20T01:38:34.752Z,2.80
2017-12-20T01:43:56.953Z,2.80
2017-12-20T01:46:25.696Z,2.80
2017-12-20T01:48:53.889Z,2.80
2017-12-20T01:51:21.326Z,2.80
2017-12-20T01:53:48.752Z,2.80
2017-12-20T01:56:16.184Z,2.80
2017-12-20T01:58:43.617Z,2.80
2017-12-20T02:01:11.049Z,2.80
2017-12-20T02:03:39.248Z,2.70
2017-12-20T02:06:07.204Z,2.70
2017-12-20T02:08:35.402Z,2.70
2017-12-20T02:11:02.836Z,2.70
2017-12-20T02:13:31.042Z,2.70
2017-12-20T02:15:58.480Z,2.70
2017-12-20T02:18:25.912Z,2.70
2017-12-20T02:20:54.109Z,2.70
2017-12-20T02:23:21.532Z,2.70
2017-12-20T02:25:48.966Z,2.80
2017-12-20T02:28:16.394Z,2.70
2017-12-20T02:30:43.840Z,2.70
2017-12-20T02:33:23.124Z,2.70
2017-12-20T02:35:50.993Z,2.70
2017-12-20T02:38:30.738Z,2.70
2017-12-20T02:40:58.165Z,2.70
2017-12-20T02:43:25.604Z,2.70
2017-12-20T02:45:53.585Z,2.70
2017-12-20T02:48:21.010Z,2.70
2017-12-20T02:50:48.451Z,2.70
2017-12-20T02:53:15.873Z,2.70
2017-12-20T02:55:43.312Z,2.70
2017-12-20T02:58:10.732Z,2.70
2017-12-20T03:00:48.805Z,2.70
2017-12-20T03:03:16.248Z,2.70
2017-12-20T03:06:00.777Z,2.70
2017-12-20T03:08:28.202Z,2.70
2017-12-20T03:10:56.416Z,2.70
2017-12-20T03:13:23.835Z,2.70
2017-12-20T03:15:52.044Z,2.70
2017-12-20T03:18:19.472Z,2.70
2017-12-20T03:20:47.685Z,2.70
2017-12-20T03:23:15.111Z,2.70
2017-12-20T03:25:42.539Z,2.70
2017-12-20T03:28:09.976Z,2.70
2017-12-20T03:30:37.941Z,2.70
2017-12-20T03:33:05.386Z,2.80
2017-12-20T03:35:32.818Z,2.80
2017-12-20T03:38:00.244Z,2.80
2017-12-20T03:40:27.881Z,2.80
2017-12-20T03:42:55.307Z,2.70
2017-12-20T03:45:22.744Z,2.80
2017-12-20T03:47:50.176Z,2.80
2017-12-20T03:50:18.141Z,2.80
2017-12-20T03:52:45.565Z,2.80
2017-12-20T03:55:13.004Z,2.80
2017-12-20T03:57:40.428Z,2.80
2017-12-20T04:00:08.635Z,2.80
2017-12-20T04:02:36.463Z,2.80
2017-12-20T04:05:04.678Z,2.80
2017-12-20T04:07:32.107Z,2.80
2017-12-20T04:10:00.317Z,2.80
2017-12-20T04:12:28.160Z,2.80
2017-12-20T04:14:56.181Z,2.80
2017-12-20T04:17:24.242Z,2.80
2017-12-20T04:19:51.673Z,2.80
2017-12-20T04:22:19.111Z,2.80
2017-12-20T04:24:46.533Z,2.80
2017-12-20T04:27:15.195Z,2.80
2017-12-20T04:29:43.010Z,2.80
2017-12-20T04:32:11.649Z,2.80
2017-12-20T04:34:39.090Z,2.80
2017-12-20T04:37:07.937Z,2.90
2017-12-20T04:39:36.126Z,2.90
2017-12-20T04:42:03.557Z,2.90
2017-12-20T04:44:31.779Z,2.90
2017-12-20T04:46:59.749Z,2.90
2017-12-20T04:49:29.033Z,2.90
2017-12-20T04:51:57.218Z,2.90
2017-12-20T04:54:27.899Z,2.80
2017-12-20T04:56:55.334Z,2.80
2017-12-20T04:59:22.776Z,2.80
2017-12-20T05:01:51.009Z,2.80
2017-12-20T05:04:18.420Z,2.80
2017-12-20T05:06:45.857Z,2.80
2017-12-20T05:09:13.291Z,2.80
2017-12-20T05:11:40.716Z,2.80
2017-12-20T05:14:08.140Z,2.80
2017-12-20T05:16:35.568Z,2.80
2017-12-20T05:19:03.872Z,2.80
2017-12-20T05:21:31.312Z,2.80
2017-12-20T05:23:58.741Z,2.80
2017-12-20T05:26:26.596Z,2.80
2017-12-20T05:28:54.792Z,2.80
2017-12-20T05:31:22.230Z,2.80
2017-12-20T05:33:50.421Z,2.80
2017-12-20T05:36:17.850Z,2.80
2017-12-20T05:38:45.272Z,2.90
2017-12-20T05:41:12.717Z,2.90
2017-12-20T05:43:40.153Z,2.90
2017-12-20T05:46:08.113Z,2.90
2017-12-20T05:48:35.546Z,2.80
2017-12-20T05:51:02.976Z,2.90
2017-12-20T05:53:30.405Z,2.90
2017-12-20T05:55:57.848Z,2.80
2017-12-20T05:58:25.844Z,2.80
2017-12-20T06:00:53.281Z,2.80
2017-12-20T06:03:20.708Z,2.80
2017-12-20T06:05:48.904Z,2.80
2017-12-20T06:08:16.337Z,2.80
2017-12-20T06:10:44.541Z,2.80
2017-12-20T06:13:12.603Z,2.80
2017-12-20T06:15:40.471Z,2.80
2017-12-20T06:18:07.893Z,2.80
2017-12-20T06:20:35.324Z,2.80
2017-12-20T06:23:02.760Z,2.80
2017-12-20T06:25:30.496Z,2.80
2017-12-20T06:27:58.697Z,2.80
2017-12-20T06:30:26.126Z,2.80
2017-12-20T06:32:54.329Z,2.80
2017-12-20T06:35:21.760Z,2.80
2017-12-20T06:37:49.976Z,2.80
2017-12-20T06:40:17.404Z,2.80
2017-12-20T06:42:44.889Z,2.80
2017-12-20T06:45:12.354Z,2.80
2017-12-20T06:47:39.836Z,2.80
2017-12-20T06:50:08.608Z,2.80
2017-12-20T06:52:36.052Z,2.80
2017-12-20T06:55:05.394Z,2.80
2017-12-20T06:57:32.868Z,2.80
2017-12-20T07:00:05.961Z,2.90
2017-12-20T07:02:34.270Z,2.90
2017-12-20T07:05:06.598Z,2.80
2017-12-20T07:07:35.012Z,2.90
2017-12-20T07:10:15.066Z,2.80
2017-12-20T07:12:49.539Z,2.90
2017-12-20T07:15:17.777Z,2.90
2017-12-20T07:17:46.201Z,2.90
2017-12-20T07:20:34.913Z,2.90
2017-12-20T07:23:06.075Z,2.90
2017-12-20T07:28:39.973Z,3.00
2017-12-20T07:34:10.584Z,3.00
2017-12-20T07:36:38.706Z,3.00
2017-12-20T07:39:06.144Z,2.90
2017-12-20T07:41:33.628Z,3.00
2017-12-20T07:44:02.206Z,3.00
2017-12-20T07:46:29.629Z,3.00
2017-12-20T07:48:57.068Z,3.00
2017-12-20T07:51:25.268Z,3.00
2017-12-20T07:53:53.177Z,3.00
2017-12-20T07:56:20.621Z,3.00
2017-12-20T07:58:48.069Z,3.00
2017-12-20T08:01:15.735Z,3.10
2017-12-20T08:03:43.174Z,3.10
2017-12-20T08:06:32.881Z,3.10
2017-12-20T08:09:00.325Z,3.10
2017-12-20T08:11:27.775Z,3.20
2017-12-20T08:13:55.217Z,3.20
2017-12-20T08:16:22.645Z,3.20
2017-12-20T08:18:51.277Z,3.20
2017-12-20T08:21:18.704Z,3.20
2017-12-20T08:23:46.133Z,3.30
2017-12-20T08:26:13.603Z,3.30
2017-12-20T08:28:41.823Z,3.20
2017-12-20T08:31:09.269Z,3.20
2017-12-20T08:33:36.706Z,3.20
2017-12-20T08:36:04.141Z,3.20
2017-12-20T08:38:32.355Z,3.10
2017-12-20T08:40:59.900Z,3.10
2017-12-20T08:43:28.170Z,3.20
2017-12-20T08:45:56.377Z,3.20
2017-12-20T08:48:23.803Z,3.20
2017-12-20T08:50:52.012Z,3.20
2017-12-20T08:53:19.434Z,3.20
2017-12-20T08:55:48.148Z,3.20
2017-12-20T08:58:16.144Z,3.20
2017-12-20T09:00:49.683Z,3.20
2017-12-20T09:03:17.876Z,3.30
2017-12-20T09:05:45.316Z,3.30
2017-12-20T09:08:13.956Z,3.20
2017-12-20T09:10:41.390Z,3.20
2017-12-20T09:13:08.832Z,3.30
2017-12-20T09:15:36.262Z,3.30
2017-12-20T09:18:04.629Z,3.40
2017-12-20T09:20:32.573Z,3.30
2017-12-20T09:23:00.010Z,3.40
2017-12-20T09:25:27.428Z,3.40
2017-12-20T09:27:55.657Z,3.40
2017-12-20T09:30:23.084Z,3.40
2017-12-20T09:32:53.117Z,3.50
2017-12-20T09:35:20.544Z,3.40
2017-12-20T09:37:47.984Z,3.40
2017-12-20T09:40:16.188Z,3.40
2017-12-20T09:42:44.033Z,3.40
2017-12-20T09:45:12.224Z,3.40
2017-12-20T09:47:40.578Z,3.40
2017-12-20T09:50:10.416Z,3.40
2017-12-20T09:52:38.284Z,3.40
2017-12-20T09:55:05.712Z,3.30
2017-12-20T09:57:40.594Z,3.40
2017-12-20T10:00:08.020Z,3.40
2017-12-20T10:02:36.445Z,3.40
2017-12-20T10:05:03.881Z,3.40
2017-12-20T10:07:31.316Z,3.50
2017-12-20T10:09:58.948Z,3.50
2017-12-20T10:12:26.384Z,3.40
2017-12-20T10:14:54.201Z,3.40
2017-12-20T10:17:22.392Z,3.40
2017-12-20T10:19:49.829Z,3.40
2017-12-20T10:22:17.266Z,3.40
2017-12-20T10:24:45.465Z,3.50
2017-12-20T10:27:13.446Z,3.40
2017-12-20T10:29:40.832Z,3.40
2017-12-20T10:32:11.733Z,3.50
2017-12-20T10:34:40.546Z,3.60
2017-12-20T10:37:07.948Z,3.60
2017-12-20T10:39:37.171Z,3.70
2017-12-20T10:42:04.608Z,3.70
2017-12-20T10:44:33.141Z,3.80
2017-12-20T10:47:00.612Z,3.80
2017-12-20T10:49:28.056Z,3.80
2017-12-20T10:51:55.481Z,3.80
2017-12-20T10:54:22.916Z,3.80
2017-12-20T10:56:51.116Z,3.70
2017-12-20T10:59:18.548Z,3.70
2017-12-20T11:01:46.748Z,3.70
2017-12-20T11:04:16.298Z,3.70
2017-12-20T11:06:44.096Z,3.70
2017-12-20T11:09:12.288Z,3.70
2017-12-20T11:11:40.109Z,3.70
2017-12-20T11:14:07.539Z,3.70
2017-12-20T11:16:35.237Z,3.80
2017-12-20T11:19:03.091Z,3.80
2017-12-20T11:21:30.525Z,3.80
2017-12-20T11:24:00.467Z,3.80
2017-12-20T11:26:29.237Z,3.90
2017-12-20T11:28:56.942Z,3.90
2017-12-20T11:31:24.352Z,3.90
2017-12-20T11:33:52.398Z,3.90
2017-12-20T11:36:20.598Z,3.90
2017-12-20T11:38:48.553Z,3.80
2017-12-20T11:41:15.991Z,3.80
2017-12-20T11:43:43.412Z,3.90
2017-12-20T11:46:13.964Z,3.80
2017-12-20T11:48:42.160Z,3.90
2017-12-20T11:51:09.626Z,3.80
2017-12-20T11:53:37.045Z,3.90
2017-12-20T11:56:04.465Z,3.80
2017-12-20T11:58:31.896Z,3.90
2017-12-20T12:00:59.329Z,3.90
2017-12-20T12:03:26.788Z,3.90
2017-12-20T12:05:54.221Z,3.90
2017-12-20T12:08:21.649Z,4.00
2017-12-20T12:10:49.087Z,4.00
2017-12-20T12:13:17.064Z,4.00
2017-12-20T12:15:44.519Z,4.00
2017-12-20T12:18:11.946Z,4.00
2017-12-20T12:20:39.377Z,4.10
2017-12-20T12:23:06.813Z,4.10
2017-12-20T12:25:34.253Z,4.20
2017-12-20T12:28:03.496Z,4.30
2017-12-20T12:30:32.236Z,4.20
2017-12-20T12:32:59.697Z,4.20
2017-12-20T12:35:27.121Z,4.20
2017-12-20T12:37:54.572Z,4.30
2017-12-20T12:40:22.008Z,4.30
2017-12-20T12:42:50.238Z,4.30
2017-12-20T12:45:18.498Z,4.30
2017-12-20T12:47:47.355Z,4.30
2017-12-20T12:50:16.019Z,4.30
2017-12-20T12:52:44.164Z,4.30
2017-12-20T12:55:11.593Z,4.30
2017-12-20T12:57:39.036Z,4.30
2017-12-20T13:00:07.005Z,4.30
2017-12-20T13:02:35.210Z,4.30
2017-12-20T13:05:05.462Z,4.30
2017-12-20T13:07:33.498Z,4.30
2017-12-20T13:10:00.922Z,4.40
2017-12-20T13:12:29.145Z,4.30
2017-12-20T13:14:57.249Z,4.30
2017-12-20T13:17:24.908Z,4.30
2017-12-20T13:19:52.755Z,4.40
2017-12-20T13:22:20.188Z,4.40
2017-12-20T13:24:50.077Z,4.30
2017-12-20T13:27:17.549Z,4.30
2017-12-20T13:29:44.972Z,4.20
2017-12-20T13:32:13.705Z,4.20
2017-12-20T13:34:41.145Z,4.20
2017-12-20T13:37:09.117Z,4.30
2017-12-20T13:39:36.573Z,4.30
2017-12-20T13:42:04.249Z,4.30
2017-12-20T13:44:32.214Z,4.40
2017-12-20T13:46:59.637Z,4.40
2017-12-20T13:49:27.852Z,4.30
2017-12-20T13:51:55.290Z,4.20
2017-12-20T13:54:22.738Z,4.30
2017-12-20T13:56:51.023Z,4.20
2017-12-20T13:59:18.481Z,4.20
2017-12-20T14:01:45.941Z,4.20
2017-12-20T14:04:13.353Z,4.20
2017-12-20T14:06:40.797Z,4.20
2017-12-20T14:09:08.242Z,4.10
2017-12-20T14:11:36.078Z,4.10
2017-12-20T14:14:03.509Z,4.10
2017-12-20T14:16:32.233Z,4.00
2017-12-20T14:18:59.678Z,4.00
2017-12-20T14:21:27.521Z,4.10
2017-12-20T14:23:56.627Z,4.00
2017-12-20T14:26:24.867Z,4.00
2017-12-20T14:28:52.821Z,4.00
2017-12-20T14:31:20.254Z,4.10
2017-12-20T14:33:47.726Z,4.00
2017-12-20T14:36:15.146Z,4.00
2017-12-20T14:38:43.091Z,3.90
2017-12-20T14:41:11.055Z,3.90
2017-12-20T14:43:38.476Z,3.90
2017-12-20T14:46:05.918Z,3.90
2017-12-20T14:48:33.893Z,3.90
2017-12-20T14:51:01.427Z,3.90
2017-12-20T14:53:29.862Z,3.90
2017-12-20T14:55:57.313Z,3.90
2017-12-20T14:58:24.752Z,3.90
2017-12-20T15:00:52.180Z,3.90
2017-12-20T15:03:20.207Z,3.90
2017-12-20T15:05:47.664Z,3.90
2017-12-20T15:08:15.133Z,3.90
2017-12-20T15:11:02.534Z,3.90
2017-12-20T15:13:29.963Z,3.90
2017-12-20T15:16:11.456Z,3.80
2017-12-20T15:18:39.703Z,3.90
2017-12-20T15:21:07.755Z,3.90
2017-12-20T15:23:35.966Z,3.80
2017-12-20T15:26:03.417Z,3.80
2017-12-20T15:28:30.853Z,3.80
2017-12-20T15:31:01.381Z,3.80
2017-12-20T15:33:29.600Z,3.70
2017-12-20T15:35:58.940Z,3.70
2017-12-20T15:38:26.386Z,3.70
2017-12-20T15:40:53.813Z,3.70
2017-12-20T15:43:21.250Z,3.70
2017-12-20T15:45:48.681Z,3.70
2017-12-20T15:48:16.874Z,3.70
2017-12-20T15:50:44.311Z,3.70
2017-12-20T15:56:12.676Z,3.70
2017-12-20T15:58:40.115Z,3.70
2017-12-20T16:01:07.544Z,3.70
2017-12-20T16:03:34.988Z,3.60
2017-12-20T16:06:03.194Z,3.60
2017-12-20T16:08:30.640Z,3.60
2017-12-20T16:10:58.098Z,3.70
2017-12-20T16:13:26.445Z,3.70
2017-12-20T16:15:54.660Z,3.60
2017-12-20T16:18:22.374Z,3.60
2017-12-20T16:20:49.925Z,3.60
2017-12-20T16:23:27.682Z,3.60
2017-12-20T16:25:55.103Z,3.60
2017-12-20T16:28:23.330Z,3.60
2017-12-20T16:30:54.072Z,3.60
2017-12-20T16:33:21.489Z,3.60
2017-12-20T16:35:56.850Z,3.60
2017-12-20T16:38:24.533Z,3.60
2017-12-20T16:40:52.260Z,3.60
2017-12-20T16:43:19.833Z,3.60
2017-12-20T16:45:50.216Z,3.60
2017-12-20T16:48:18.361Z,3.60
2017-12-20T16:50:45.799Z,3.50
2017-12-20T16:53:13.263Z,3.60
2017-12-20T16:55:40.988Z,3.60
2017-12-20T16:58:09.184Z,3.60
2017-12-20T17:00:36.623Z,3.50
2017-12-20T17:03:04.622Z,3.60
2017-12-20T17:05:32.069Z,3.50
2017-12-20T17:07:59.482Z,3.60
2017-12-20T17:10:26.908Z,3.50
2017-12-20T17:12:54.895Z,3.50
2017-12-20T17:15:22.321Z,3.50
2017-12-20T17:17:50.271Z,3.50
2017-12-20T17:20:17.693Z,3.50
2017-12-20T17:22:48.452Z,3.50
2017-12-20T17:25:15.977Z,3.50
2017-12-20T17:27:43.408Z,3.50
2017-12-20T17:30:10.840Z,3.50
2017-12-20T17:32:38.281Z,3.50
2017-12-20T17:35:05.728Z,3.50
2017-12-20T17:37:34.896Z,3.50
2017-12-20T17:40:02.349Z,3.50
2017-12-20T17:42:29.798Z,3.50
2017-12-20T17:47:50.912Z,3.60
2017-12-20T17:50:18.341Z,3.60
2017-12-20T17:52:45.768Z,3.60
2017-12-20T17:55:13.969Z,3.60
2017-12-20T17:57:41.401Z,3.60
2017-12-20T18:00:09.612Z,3.60
2017-12-20T18:02:37.036Z,3.50
2017-12-20T18:05:05.674Z,3.60
2017-12-20T18:07:33.096Z,3.50
2017-12-20T18:10:01.085Z,3.50
2017-12-20T18:12:28.524Z,3.60
2017-12-20T18:14:55.953Z,3.60
2017-12-20T18:17:24.550Z,3.50
2017-12-20T18:19:52.746Z,3.50
2017-12-20T18:22:20.168Z,3.50
2017-12-20T18:24:48.365Z,3.50
2017-12-20T18:27:15.804Z,3.50
2017-12-20T18:29:44.005Z,3.50
2017-12-20T18:32:11.941Z,3.50
2017-12-20T18:34:39.904Z,3.50
2017-12-20T18:37:07.349Z,3.50
2017-12-20T18:39:35.342Z,3.50
2017-12-20T18:42:03.537Z,3.50
2017-12-20T18:44:30.971Z,3.50
2017-12-20T18:46:59.165Z,3.50
2017-12-20T18:49:26.592Z,3.50
2017-12-20T18:51:55.317Z,3.50
2017-12-20T18:54:22.729Z,3.50
2017-12-20T18:56:50.698Z,3.50
2017-12-20T18:59:18.129Z,3.60
2017-12-20T19:01:45.556Z,3.50
2017-12-20T19:04:13.896Z,3.60
2017-12-20T19:06:41.362Z,3.50
2017-12-20T19:09:09.495Z,3.60
2017-12-20T19:11:36.966Z,3.60
2017-12-20T19:14:04.857Z,3.60
2017-12-20T19:16:32.818Z,3.50
2017-12-20T19:19:00.244Z,3.60
2017-12-20T19:21:28.080Z,3.60
2017-12-20T19:23:55.509Z,3.60
2017-12-20T19:26:23.712Z,3.60
2017-12-20T19:28:51.152Z,3.60
2017-12-20T19:31:19.933Z,3.60
2017-12-20T19:33:48.654Z,3.60
2017-12-20T19:36:16.085Z,3.60
2017-12-20T19:38:44.374Z,3.60
2017-12-20T19:41:11.808Z,3.60
2017-12-20T19:43:40.020Z,3.60
2017-12-20T19:46:10.012Z,3.60
2017-12-20T19:48:37.436Z,3.60
2017-12-20T19:51:04.877Z,3.60
2017-12-20T19:53:32.314Z,3.60
2017-12-20T19:55:59.792Z,3.60
2017-12-20T19:58:27.245Z,3.60
2017-12-20T20:00:54.830Z,3.60
2017-12-20T20:03:25.077Z,3.60
2017-12-20T20:05:52.488Z,3.60
2017-12-20T20:08:20.582Z,3.60
2017-12-20T20:10:48.593Z,3.60
2017-12-20T20:13:16.013Z,3.70
2017-12-20T20:15:43.458Z,3.70
2017-12-20T20:18:11.637Z,3.70
2017-12-20T20:20:40.119Z,3.70
2017-12-20T20:23:07.547Z,3.70
2017-12-20T20:25:35.869Z,3.70
2017-12-20T20:28:04.111Z,3.70
2017-12-20T20:30:31.559Z,3.70
2017-12-20T20:32:59.005Z,3.70
2017-12-20T20:35:26.450Z,3.70
2017-12-20T20:37:53.885Z,3.70
2017-12-20T20:40:22.082Z,3.80
2017-12-20T20:42:49.575Z,3.80
2017-12-20T20:45:17.780Z,3.80
2017-12-20T20:47:45.434Z,3.80
2017-12-20T20:50:12.874Z,3.80
2017-12-20T20:52:40.841Z,3.80
2017-12-20T20:55:08.883Z,3.80
2017-12-20T20:57:36.300Z,3.80
2017-12-20T21:00:04.516Z,3.80
2017-12-20T21:02:32.086Z,3.80
2017-12-20T21:04:59.513Z,3.80
2017-12-20T21:07:27.300Z,3.80
2017-12-20T21:09:55.201Z,3.80
2017-12-20T21:12:24.069Z,3.80
2017-12-20T21:14:51.500Z,3.80
2017-12-20T21:17:19.495Z,3.80
2017-12-20T21:19:46.954Z,3.80
2017-12-20T21:22:14.397Z,3.80
2017-12-20T21:24:42.565Z,3.80
2017-12-20T21:27:10.419Z,3.80
2017-12-20T21:29:37.860Z,3.80
2017-12-20T21:32:05.330Z,3.90
2017-12-20T21:34:32.714Z,3.90
2017-12-20T21:37:00.548Z,3.80
2017-12-20T21:39:27.971Z,3.80
2017-12-20T21:41:55.421Z,3.80
2017-12-20T21:44:22.841Z,3.80
2017-12-20T21:46:50.277Z,3.90
2017-12-20T21:49:17.710Z,3.80
2017-12-20T21:51:45.919Z,3.80
2017-12-20T21:54:13.638Z,3.80
2017-12-20T21:56:41.732Z,3.80
2017-12-20T21:59:09.570Z,3.80
2017-12-20T22:01:36.997Z,3.80
2017-12-20T22:04:04.420Z,3.80
2017-12-20T22:06:31.857Z,3.80
2017-12-20T22:09:00.508Z,3.80
2017-12-20T22:11:27.983Z,3.80
2017-12-20T22:13:55.416Z,3.80
2017-12-20T22:16:26.253Z,3.80
2017-12-20T22:18:53.682Z,3.80
2017-12-20T22:21:21.106Z,3.80
2017-12-20T22:23:50.252Z,3.90
2017-12-20T22:26:17.693Z,3.90
2017-12-20T22:28:45.896Z,3.90
2017-12-20T22:31:13.314Z,3.90
2017-12-20T22:33:41.461Z,3.90
2017-12-20T22:36:12.088Z,3.80
2017-12-20T22:38:40.292Z,3.90
2017-12-20T22:41:07.721Z,3.80
2017-12-20T22:43:36.329Z,3.80
2017-12-20T22:46:03.752Z,3.80
2017-12-20T22:48:31.187Z,3.90
2017-12-20T22:50:59.045Z,3.90
2017-12-20T22:53:26.488Z,3.80
2017-12-20T22:55:53.939Z,3.90
2017-12-20T22:58:21.372Z,3.90
2017-12-20T23:00:49.328Z,3.90
2017-12-20T23:03:18.193Z,3.90
2017-12-20T23:05:45.644Z,3.80
2017-12-20T23:08:13.081Z,3.90
2017-12-20T23:10:40.506Z,3.90
2017-12-20T23:13:08.096Z,3.90
2017-12-20T23:15:35.549Z,3.90
2017-12-20T23:18:03.084Z,3.90
2017-12-20T23:20:30.592Z,3.90
2017-12-20T23:22:58.022Z,3.90
2017-12-20T23:25:25.445Z,3.90
2017-12-20T23:27:53.650Z,3.90
2017-12-20T23:30:21.065Z,3.90
2017-12-20T23:32:49.257Z,3.90
2017-12-20T23:35:16.695Z,3.90
2017-12-20T23:37:45.665Z,3.90
2017-12-20T23:40:13.744Z,3.90
2017-12-20T23:42:41.154Z,3.90
2017-12-20T23:45:08.589Z,3.90
2017-12-20T23:47:36.545Z,3.90
2017-12-20T23:50:04.741Z,3.90
2017-12-20T23:52:32.761Z,3.90
2017-12-20T23:55:01.729Z,3.90
2017-12-20T23:57:29.156Z,3.90
2017-12-20T23:59:57.316Z,3.90
